Wetterdaten: Woche 13.04.09 - 19.04.09 (KW16)
Datum Zeit Temp. Innen Temp. Aussen Feuchte Inne Feuchte Auss Luftdruck Regen ab 0,1 Wind
13.04.2009 00:00 20,2 C 12,5 C 56 % 83 % 1009,3 hPa 0,0 l/m 0,0 km/h (0 Bft)
13.04.2009 01:00 20,1 C 12,5 C 56 % 84 % 1009,3 hPa 0,0 l/m 0,0 km/h (0 Bft)
13.04.2009 02:00 20,0 C 12,4 C 56 % 84 % 1009,3 hPa 0,0 l/m 0,0 km/h (0 Bft)
13.04.2009 03:00 20,0 C 12,0 C 56 % 86 % 1009,3 hPa 0,0 l/m 0,0 km/h (0 Bft)
13.04.2009 04:00 19,9 C 11,3 C 56 % 86 % 1009,4 hPa 0,0 l/m 0,0 km/h (0 Bft)
13.04.2009 05:00 19,8 C 10,8 C 56 % 86 % 1009,4 hPa 0,0 l/m 0,0 km/h (0 Bft)
13.04.2009 06:00 19,7 C 10,6 C 55 % 87 % 1009,4 hPa 0,0 l/m 0,2 km/h (0 Bft)
13.04.2009 07:00 19,6 C 10,3 C 55 % 88 % 1009,4 hPa 0,0 l/m 0,7 km/h (0 Bft)
13.04.2009 08:00 19,6 C 10,3 C 55 % 87 % 1009,7 hPa 0,0 l/m 0,0 km/h (0 Bft)
13.04.2009 09:00 19,5 C 10,5 C 55 % 87 % 1010,4 hPa 0,0 l/m 0,6 km/h (0 Bft)
13.04.2009 10:00 19,4 C 10,5 C 55 % 87 % 1010,4 hPa 0,0 l/m 0,2 km/h (0 Bft)
13.04.2009 11:00 19,4 C 10,5 C 54 % 86 % 1010,4 hPa 0,0 l/m 0,0 km/h (0 Bft)
13.04.2009 12:00 19,4 C 11,3 C 54 % 85 % 1010,4 hPa 0,0 l/m 0,0 km/h (0 Bft)
13.04.2009 13:00 19,4 C 12,7 C 54 % 82 % 1010,0 hPa 0,0 l/m 0,0 km/h (0 Bft)
13.04.2009 14:00 19,5 C 15,6 C 54 % 76 % 1009,3 hPa 0,0 l/m 1,6 km/h (1 Bft)
13.04.2009 15:00 19,7 C 17,9 C 54 % 69 % 1008,7 hPa 0,0 l/m 5,1 km/h (1 Bft)
13.04.2009 16:00 20,0 C 19,0 C 54 % 66 % 1008,2 hPa 0,0 l/m 3,9 km/h (1 Bft)
13.04.2009 17:00 20,1 C 19,5 C 54 % 61 % 1008,2 hPa 0,0 l/m 3,1 km/h (1 Bft)
13.04.2009 18:00 20,2 C 19,1 C 54 % 62 % 1008,2 hPa 0,0 l/m 0,0 km/h (0 Bft)
13.04.2009 19:00 20,6 C 18,1 C 54 % 64 % 1008,2 hPa 0,0 l/m 0,2 km/h (0 Bft)
13.04.2009 20:00 20,8 C 16,7 C 55 % 68 % 1008,3 hPa 0,0 l/m 0,0 km/h (0 Bft)
13.04.2009 21:00 20,6 C 14,8 C 56 % 72 % 1008,3 hPa 0,0 l/m 0,0 km/h (0 Bft)
13.04.2009 22:00 20,5 C 13,2 C 56 % 76 % 1008,3 hPa 0,0 l/m 0,0 km/h (0 Bft)
13.04.2009 23:00 20,4 C 12,1 C 56 % 78 % 1008,3 hPa 0,0 l/m 0,0 km/h (0 Bft)
14.04.2009 00:00 20,2 C 11,4 C 56 % 80 % 1008,8 hPa 0,0 l/m 0,0 km/h (0 Bft)
14.04.2009 01:00 20,2 C 11,0 C 56 % 81 % 1009,1 hPa 0,0 l/m 0,0 km/h (0 Bft)
14.04.2009 02:00 20,0 C 10,4 C 55 % 82 % 1008,9 hPa 0,0 l/m 0,0 km/h (0 Bft)
14.04.2009 03:00 19,9 C 9,6 C 55 % 82 % 1008,8 hPa 0,0 l/m 0,0 km/h (0 Bft)
14.04.2009 04:00 19,8 C 8,8 C 54 % 83 % 1008,4 hPa 0,0 l/m 0,0 km/h (0 Bft)
14.04.2009 05:00 19,7 C 8,3 C 54 % 83 % 1008,4 hPa 0,0 l/m 0,0 km/h (0 Bft)
14.04.2009 06:00 19,6 C 7,9 C 53 % 84 % 1008,4 hPa 0,0 l/m 0,0 km/h (0 Bft)
14.04.2009 07:00 19,6 C 7,7 C 53 % 84 % 1008,9 hPa 0,0 l/m 0,0 km/h (0 Bft)
14.04.2009 08:00 19,6 C 8,5 C 53 % 86 % 1009,4 hPa 0,0 l/m 0,0 km/h (0 Bft)
14.04.2009 09:00 19,2 C 9,6 C 54 % 87 % 1009,4 hPa 0,0 l/m 0,0 km/h (0 Bft)
14.04.2009 10:00 18,9 C 11,4 C 56 % 87 % 1009,5 hPa 0,0 l/m 0,0 km/h (0 Bft)
14.04.2009 11:00 19,1 C 13,7 C 56 % 84 % 1009,3 hPa 0,0 l/m 0,5 km/h (0 Bft)
14.04.2009 12:00 19,3 C 15,9 C 59 % 79 % 1009,3 hPa 0,0 l/m 1,4 km/h (1 Bft)
14.04.2009 13:00 19,5 C 17,5 C 60 % 75 % 1009,1 hPa 0,0 l/m 5,4 km/h (1 Bft)
14.04.2009 14:00 19,7 C 19,6 C 60 % 67 % 1008,4 hPa 0,0 l/m 0,1 km/h (0 Bft)
14.04.2009 15:00 19,9 C 21,1 C 58 % 61 % 1008,2 hPa 0,0 l/m 3,0 km/h (1 Bft)
14.04.2009 16:00 20,1 C 21,5 C 58 % 59 % 1008,2 hPa 0,0 l/m 5,1 km/h (1 Bft)
14.04.2009 17:00 20,3 C 22,1 C 57 % 56 % 1008,1 hPa 0,0 l/m 5,7 km/h (1 Bft)
14.04.2009 18:00 20,4 C 22,0 C 57 % 57 % 1007,3 hPa 0,0 l/m 2,8 km/h (1 Bft)
14.04.2009 19:00 20,4 C 21,1 C 57 % 58 % 1008,0 hPa 0,0 l/m 0,0 km/h (0 Bft)
14.04.2009 20:00 20,5 C 19,6 C 56 % 60 % 1008,2 hPa 0,0 l/m 0,0 km/h (0 Bft)
14.04.2009 21:00 20,6 C 17,6 C 56 % 63 % 1008,3 hPa 0,0 l/m 0,0 km/h (0 Bft)
14.04.2009 22:00 20,6 C 15,8 C 56 % 67 % 1008,3 hPa 0,0 l/m 0,0 km/h (0 Bft)
14.04.2009 23:00 20,5 C 14,3 C 55 % 70 % 1008,3 hPa 0,0 l/m 0,0 km/h (0 Bft)
15.04.2009 00:00 20,5 C 13,0 C 55 % 73 % 1008,3 hPa 0,0 l/m 0,0 km/h (0 Bft)
15.04.2009 01:00 20,4 C 12,2 C 55 % 74 % 1008,3 hPa 0,0 l/m 0,0 km/h (0 Bft)
15.04.2009 02:00 20,3 C 11,2 C 54 % 76 % 1008,4 hPa 0,0 l/m 0,0 km/h (0 Bft)
15.04.2009 03:00 20,2 C 10,3 C 54 % 78 % 1008,4 hPa 0,0 l/m 0,0 km/h (0 Bft)
15.04.2009 04:00 20,1 C 9,4 C 54 % 79 % 1008,4 hPa 0,0 l/m 0,0 km/h (0 Bft)
15.04.2009 05:00 20,0 C 8,7 C 54 % 80 % 1008,4 hPa 0,0 l/m 0,0 km/h (0 Bft)
15.04.2009 06:00 19,8 C 8,1 C 53 % 81 % 1008,4 hPa 0,0 l/m 0,0 km/h (0 Bft)
15.04.2009 07:00 19,7 C 7,8 C 53 % 82 % 1008,4 hPa 0,0 l/m 0,0 km/h (0 Bft)
15.04.2009 08:00 19,6 C 8,6 C 54 % 83 % 1008,4 hPa 0,0 l/m 0,0 km/h (0 Bft)
15.04.2009 09:00 19,6 C 11,1 C 55 % 85 % 1008,4 hPa 0,0 l/m 0,0 km/h (0 Bft)
15.04.2009 10:00 19,7 C 14,5 C 55 % 81 % 1008,3 hPa 0,0 l/m 1,2 km/h (1 Bft)
15.04.2009 11:00 19,9 C 18,4 C 55 % 68 % 1008,2 hPa 0,0 l/m 7,9 km/h (2 Bft)
15.04.2009 12:00 20,0 C 21,2 C 54 % 58 % 1007,7 hPa 0,0 l/m 1,0 km/h (0 Bft)
15.04.2009 13:00 20,1 C 23,5 C 54 % 52 % 1007,2 hPa 0,0 l/m 0,0 km/h (0 Bft)
15.04.2009 14:00 20,3 C 25,4 C 54 % 46 % 1007,1 hPa 0,0 l/m 0,0 km/h (0 Bft)
15.04.2009 15:00 20,7 C 27,0 C 53 % 40 % 1006,1 hPa 0,0 l/m 0,0 km/h (0 Bft)
15.04.2009 16:00 21,3 C 27,6 C 51 % 35 % 1006,1 hPa 0,0 l/m 0,2 km/h (0 Bft)
15.04.2009 17:00 21,5 C 26,9 C 50 % 36 % 1006,1 hPa 0,0 l/m 1,6 km/h (1 Bft)
15.04.2009 18:00 21,4 C 24,5 C 51 % 41 % 1006,1 hPa 0,0 l/m 8,5 km/h (2 Bft)
15.04.2009 19:00 21,4 C 22,6 C 51 % 44 % 1006,2 hPa 0,0 l/m 3,4 km/h (1 Bft)
15.04.2009 20:00 21,4 C 20,6 C 51 % 48 % 1006,2 hPa 0,0 l/m 0,5 km/h (0 Bft)
15.04.2009 21:00 21,4 C 18,3 C 51 % 54 % 1006,2 hPa 0,0 l/m 0,0 km/h (0 Bft)
15.04.2009 22:00 21,4 C 16,2 C 51 % 59 % 1006,3 hPa 0,0 l/m 0,0 km/h (0 Bft)
15.04.2009 23:00 21,3 C 14,5 C 51 % 64 % 1006,3 hPa 0,0 l/m 0,0 km/h (0 Bft)
16.04.2009 00:00 21,2 C 13,0 C 52 % 68 % 1006,3 hPa 0,0 l/m 0,0 km/h (0 Bft)
16.04.2009 01:00 21,1 C 11,9 C 52 % 71 % 1006,3 hPa 0,0 l/m 0,0 km/h (0 Bft)
16.04.2009 02:00 21,0 C 11,0 C 52 % 73 % 1006,3 hPa 0,0 l/m 0,0 km/h (0 Bft)
16.04.2009 03:00 20,9 C 10,3 C 51 % 74 % 1006,4 hPa 0,0 l/m 0,0 km/h (0 Bft)
16.04.2009 04:00 20,8 C 10,1 C 51 % 76 % 1006,4 hPa 0,0 l/m 0,0 km/h (0 Bft)
16.04.2009 05:00 20,7 C 10,1 C 51 % 76 % 1006,4 hPa 0,0 l/m 0,0 km/h (0 Bft)
16.04.2009 06:00 20,6 C 11,0 C 50 % 76 % 1006,3 hPa 0,0 l/m 0,7 km/h (0 Bft)
16.04.2009 07:00 20,5 C 11,8 C 51 % 76 % 1006,3 hPa 0,0 l/m 0,0 km/h (0 Bft)
16.04.2009 08:00 20,4 C 12,6 C 51 % 75 % 1006,2 hPa 0,0 l/m 0,0 km/h (0 Bft)
16.04.2009 09:00 20,4 C 13,4 C 51 % 75 % 1006,3 hPa 0,0 l/m 0,0 km/h (0 Bft)
16.04.2009 10:00 20,3 C 14,5 C 52 % 73 % 1006,3 hPa 0,0 l/m 0,0 km/h (0 Bft)
16.04.2009 11:00 20,4 C 17,0 C 52 % 66 % 1006,1 hPa 0,0 l/m 9,6 km/h (2 Bft)
16.04.2009 12:00 20,4 C 18,7 C 52 % 62 % 1005,2 hPa 0,0 l/m 6,8 km/h (2 Bft)
16.04.2009 13:00 20,5 C 19,8 C 52 % 57 % 1005,2 hPa 0,0 l/m 9,3 km/h (2 Bft)
16.04.2009 14:00 20,6 C 20,0 C 52 % 56 % 1005,2 hPa 0,0 l/m 2,2 km/h (1 Bft)
16.04.2009 15:00 20,7 C 19,3 C 52 % 57 % 1005,0 hPa 0,0 l/m 0,6 km/h (0 Bft)
16.04.2009 16:00 20,7 C 18,7 C 52 % 57 % 1004,6 hPa 0,0 l/m 0,8 km/h (0 Bft)
16.04.2009 17:00 20,8 C 17,9 C 52 % 59 % 1004,2 hPa 0,0 l/m 0,2 km/h (0 Bft)
16.04.2009 18:00 20,8 C 17,4 C 51 % 61 % 1004,2 hPa 0,0 l/m 0,5 km/h (0 Bft)
16.04.2009 19:00 20,8 C 16,3 C 52 % 66 % 1004,3 hPa 3,6 l/m 0,7 km/h (0 Bft)
16.04.2009 20:00 20,8 C 14,0 C 54 % 77 % 1004,3 hPa 5,7 l/m 1,9 km/h (1 Bft)
16.04.2009 21:00 20,8 C 13,2 C 54 % 82 % 1005,0 hPa 2,1 l/m 0,7 km/h (0 Bft)
16.04.2009 22:00 20,8 C 12,9 C 55 % 84 % 1005,3 hPa 2,6 l/m 0,3 km/h (0 Bft)
16.04.2009 23:00 20,7 C 12,6 C 55 % 85 % 1005,0 hPa 0,5 l/m 0,4 km/h (0 Bft)
17.04.2009 00:00 20,6 C 12,1 C 55 % 86 % 1004,3 hPa 0,0 l/m 0,3 km/h (0 Bft)
17.04.2009 01:00 20,5 C 11,9 C 55 % 86 % 1004,3 hPa 0,0 l/m 0,0 km/h (0 Bft)
17.04.2009 02:00 20,4 C 11,8 C 55 % 86 % 1004,2 hPa 0,0 l/m 0,0 km/h (0 Bft)
17.04.2009 03:00 20,4 C 11,6 C 55 % 86 % 1003,6 hPa 0,0 l/m 0,0 km/h (0 Bft)
17.04.2009 04:00 20,3 C 11,4 C 55 % 87 % 1003,3 hPa 0,0 l/m 0,8 km/h (0 Bft)
17.04.2009 05:00 20,3 C 11,4 C 55 % 87 % 1003,3 hPa 0,0 l/m 0,0 km/h (0 Bft)
17.04.2009 06:00 20,2 C 11,4 C 56 % 87 % 1003,3 hPa 0,0 l/m 0,0 km/h (0 Bft)
17.04.2009 07:00 20,2 C 11,4 C 56 % 88 % 1003,2 hPa 0,0 l/m 1,0 km/h (0 Bft)
17.04.2009 08:00 20,3 C 11,5 C 56 % 89 % 1003,3 hPa 0,0 l/m 0,0 km/h (0 Bft)
17.04.2009 09:00 20,1 C 11,6 C 56 % 89 % 1003,3 hPa 0,0 l/m 1,5 km/h (1 Bft)
17.04.2009 10:00 19,8 C 11,6 C 57 % 88 % 1003,3 hPa 0,0 l/m 0,6 km/h (0 Bft)
17.04.2009 11:00 19,9 C 11,9 C 56 % 88 % 1003,9 hPa 0,0 l/m 0,0 km/h (0 Bft)
17.04.2009 12:00 19,9 C 12,4 C 57 % 87 % 1004,3 hPa 0,0 l/m 0,8 km/h (0 Bft)
17.04.2009 13:00 20,0 C 12,9 C 56 % 84 % 1004,3 hPa 0,0 l/m 0,0 km/h (0 Bft)
17.04.2009 14:00 20,0 C 13,1 C 56 % 82 % 1004,3 hPa 0,0 l/m 0,0 km/h (0 Bft)
17.04.2009 15:00 20,0 C 14,2 C 56 % 77 % 1004,3 hPa 0,0 l/m 0,0 km/h (0 Bft)
17.04.2009 16:00 20,1 C 15,6 C 55 % 71 % 1004,4 hPa 0,0 l/m 0,0 km/h (0 Bft)
17.04.2009 17:00 20,1 C 15,1 C 55 % 69 % 1005,3 hPa 0,0 l/m 0,0 km/h (0 Bft)
17.04.2009 18:00 20,1 C 14,3 C 55 % 76 % 1005,8 hPa 0,0 l/m 0,0 km/h (0 Bft)
17.04.2009 19:00 20,1 C 13,6 C 56 % 79 % 1006,4 hPa 0,0 l/m 0,0 km/h (0 Bft)
17.04.2009 20:00 20,1 C 12,9 C 57 % 82 % 1007,3 hPa 0,0 l/m 0,0 km/h (0 Bft)
17.04.2009 21:00 20,0 C 12,0 C 58 % 82 % 1007,5 hPa 0,0 l/m 0,0 km/h (0 Bft)
17.04.2009 22:00 20,1 C 11,5 C 58 % 84 % 1008,2 hPa 0,0 l/m 0,0 km/h (0 Bft)
17.04.2009 23:00 20,0 C 11,1 C 58 % 86 % 1008,4 hPa 0,0 l/m 0,4 km/h (0 Bft)
18.04.2009 00:00 20,0 C 10,7 C 58 % 86 % 1008,9 hPa 0,0 l/m 0,0 km/h (0 Bft)
18.04.2009 01:00 19,9 C 10,2 C 57 % 86 % 1009,4 hPa 0,0 l/m 0,0 km/h (0 Bft)
18.04.2009 02:00 19,8 C 10,2 C 57 % 87 % 1009,4 hPa 0,0 l/m 0,0 km/h (0 Bft)
18.04.2009 03:00 19,8 C 9,7 C 57 % 87 % 1009,4 hPa 0,0 l/m 0,0 km/h (0 Bft)
18.04.2009 04:00 19,7 C 9,0 C 56 % 87 % 1009,8 hPa 0,0 l/m 0,0 km/h (0 Bft)
18.04.2009 05:00 19,6 C 8,1 C 55 % 88 % 1010,4 hPa 0,0 l/m 0,0 km/h (0 Bft)
18.04.2009 06:00 19,5 C 7,2 C 54 % 88 % 1010,4 hPa 0,0 l/m 0,0 km/h (0 Bft)
18.04.2009 07:00 19,3 C 6,4 C 52 % 87 % 1010,9 hPa 0,0 l/m 0,0 km/h (0 Bft)
18.04.2009 08:00 19,2 C 6,6 C 50 % 87 % 1011,5 hPa 0,0 l/m 0,0 km/h (0 Bft)
18.04.2009 09:00 19,0 C 7,6 C 48 % 84 % 1012,4 hPa 0,0 l/m 0,0 km/h (0 Bft)
18.04.2009 10:00 19,0 C 9,2 C 49 % 79 % 1012,4 hPa 0,0 l/m 0,0 km/h (0 Bft)
18.04.2009 11:00 19,0 C 11,3 C 49 % 73 % 1013,0 hPa 0,0 l/m 0,6 km/h (0 Bft)
18.04.2009 12:00 19,0 C 13,2 C 49 % 68 % 1013,3 hPa 0,0 l/m 1,1 km/h (1 Bft)
18.04.2009 13:00 19,2 C 14,1 C 49 % 63 % 1013,3 hPa 0,0 l/m 1,6 km/h (1 Bft)
18.04.2009 14:00 19,2 C 14,2 C 49 % 62 % 1013,3 hPa 0,0 l/m 0,2 km/h (0 Bft)
18.04.2009 15:00 19,3 C 14,9 C 49 % 63 % 1013,3 hPa 0,0 l/m 0,1 km/h (0 Bft)
18.04.2009 16:00 19,3 C 13,6 C 50 % 67 % 1014,2 hPa 0,0 l/m 0,0 km/h (0 Bft)
18.04.2009 17:00 19,4 C 12,4 C 50 % 70 % 1014,4 hPa 0,0 l/m 0,0 km/h (0 Bft)
18.04.2009 18:00 19,4 C 11,5 C 50 % 73 % 1014,7 hPa 1,0 l/m 0,0 km/h (0 Bft)
18.04.2009 19:00 19,4 C 10,6 C 51 % 77 % 1015,1 hPa 0,0 l/m 0,0 km/h (0 Bft)
18.04.2009 20:00 19,3 C 10,2 C 51 % 78 % 1015,4 hPa 0,0 l/m 0,0 km/h (0 Bft)
18.04.2009 21:00 19,3 C 10,1 C 51 % 80 % 1016,1 hPa 0,0 l/m 0,0 km/h (0 Bft)
18.04.2009 22:00 19,3 C 9,9 C 51 % 80 % 1016,4 hPa 0,0 l/m 0,0 km/h (0 Bft)
18.04.2009 23:00 19,2 C 9,9 C 51 % 81 % 1017,3 hPa 0,0 l/m 0,0 km/h (0 Bft)
19.04.2009 00:00 19,2 C 9,9 C 51 % 82 % 1017,4 hPa 0,0 l/m 0,0 km/h (0 Bft)
19.04.2009 01:00 19,2 C 9,4 C 51 % 81 % 1017,6 hPa 0,0 l/m 0,0 km/h (0 Bft)
19.04.2009 02:00 19,1 C 8,3 C 51 % 82 % 1018,4 hPa 0,0 l/m 0,0 km/h (0 Bft)
19.04.2009 03:00 19,0 C 7,3 C 51 % 83 % 1018,5 hPa 0,0 l/m 0,0 km/h (0 Bft)
19.04.2009 04:00 19,0 C 7,3 C 51 % 84 % 1018,5 hPa 0,0 l/m 0,0 km/h (0 Bft)
19.04.2009 05:00 18,9 C 7,3 C 51 % 85 % 1018,5 hPa 0,0 l/m 0,0 km/h (0 Bft)
19.04.2009 06:00 18,8 C 6,9 C 51 % 85 % 1018,7 hPa 0,0 l/m 0,0 km/h (0 Bft)
19.04.2009 07:00 18,8 C 6,7 C 51 % 86 % 1019,5 hPa 0,0 l/m 0,0 km/h (0 Bft)
19.04.2009 08:00 18,8 C 7,7 C 51 % 86 % 1020,2 hPa 0,0 l/m 0,0 km/h (0 Bft)
19.04.2009 09:00 18,8 C 9,6 C 51 % 87 % 1020,4 hPa 0,0 l/m 0,0 km/h (0 Bft)
19.04.2009 10:00 18,8 C 12,2 C 52 % 82 % 1020,4 hPa 0,0 l/m 0,0 km/h (0 Bft)
19.04.2009 11:00 18,8 C 14,1 C 52 % 72 % 1021,0 hPa 0,0 l/m 0,9 km/h (0 Bft)
19.04.2009 12:00 18,9 C 14,4 C 52 % 69 % 1021,4 hPa 0,0 l/m 0,0 km/h (0 Bft)
19.04.2009 13:00 19,0 C 14,9 C 52 % 67 % 1021,4 hPa 0,0 l/m 0,4 km/h (0 Bft)
19.04.2009 14:00 19,1 C 16,4 C 51 % 62 % 1021,3 hPa 0,0 l/m 1,8 km/h (1 Bft)
19.04.2009 15:00 19,4 C 18,5 C 51 % 57 % 1021,4 hPa 0,0 l/m 2,2 km/h (1 Bft)
19.04.2009 16:00 20,0 C 19,8 C 50 % 52 % 1021,3 hPa 0,0 l/m 0,0 km/h (0 Bft)
19.04.2009 17:00 20,3 C 19,1 C 49 % 51 % 1021,3 hPa 0,0 l/m 2,2 km/h (1 Bft)
19.04.2009 18:00 20,1 C 17,7 C 49 % 54 % 1021,3 hPa 0,0 l/m 0,0 km/h (0 Bft)
19.04.2009 19:00 20,2 C 16,6 C 49 % 56 % 1021,3 hPa 0,0 l/m 0,0 km/h (0 Bft)
19.04.2009 20:00 20,2 C 15,2 C 49 % 60 % 1021,9 hPa 0,0 l/m 0,0 km/h (0 Bft)
19.04.2009 21:00 20,3 C 13,1 C 49 % 66 % 1022,4 hPa 0,0 l/m 0,0 km/h (0 Bft)
19.04.2009 22:00 20,2 C 11,3 C 50 % 70 % 1022,9 hPa 0,0 l/m 0,0 km/h (0 Bft)
19.04.2009 23:00 20,2 C 9,9 C 50 % 73 % 1023,3 hPa 0,0 l/m 0,0 km/h (0 Bft)
Min-Datum _ 19.04.09 18.04.09 18.04.09 15.04.09 17.04.09 - 13.04.09
_ Min-Zeit 10:44 07:36 09:30 16:54 07:38 - 00:00
Minimum _ 18,7 C 6,3 C 47 % 34 % 1002,3 hPa - 0,0 km/h (0 Bft)
Max-Datum _ 15.04.09 15.04.09 14.04.09 17.04.09 19.04.09 16.04.09 16.04.09
_ Max-Zeit 17:22 16:52 12:46 08:28 22:08 20:02 11:36
Maximum _ 21,6 C 27,8 C 60 % 89 % 1023,4 hPa 5,7 l/m 50,1 km/h
N-NO (7 Bft)
Durchschnitt _ 20,0 C 13,5 C 53 % 74 % 1009,8 hPa #15,5 l/m 0,7 km/h (0 Bft)
© 2012 W. Hausmann